sensor_id;sensor_type;location;lat;lon;timestamp;P1;durP1;ratioP1;P2;durP2;ratioP2
5199;SDS011;2619;47.868;11.892;2023-04-24T00:00:15;2.00;;;0.80;;
5199;SDS011;2619;47.868;11.892;2023-04-24T00:02:42;2.00;;;0.90;;
5199;SDS011;2619;47.868;11.892;2023-04-24T00:05:13;1.90;;;0.70;;
5199;SDS011;2619;47.868;11.892;2023-04-24T00:07:40;1.93;;;0.80;;
5199;SDS011;2619;47.868;11.892;2023-04-24T00:10:07;2.03;;;0.60;;
5199;SDS011;2619;47.868;11.892;2023-04-24T00:12:33;6.80;;;0.90;;
5199;SDS011;2619;47.868;11.892;2023-04-24T00:14:59;2.10;;;0.73;;
5199;SDS011;2619;47.868;11.892;2023-04-24T00:17:25;1.90;;;0.67;;
5199;SDS011;2619;47.868;11.892;2023-04-24T00:19:51;1.90;;;0.70;;
5199;SDS011;2619;47.868;11.892;2023-04-24T00:22:23;3.50;;;0.90;;
5199;SDS011;2619;47.868;11.892;2023-04-24T00:24:52;3.10;;;0.87;;
5199;SDS011;2619;47.868;11.892;2023-04-24T00:27:17;3.53;;;1.13;;
5199;SDS011;2619;47.868;11.892;2023-04-24T00:29:43;2.40;;;0.70;;
5199;SDS011;2619;47.868;11.892;2023-04-24T00:32:08;3.50;;;1.07;;
5199;SDS011;2619;47.868;11.892;2023-04-24T00:34:34;5.93;;;0.90;;
5199;SDS011;2619;47.868;11.892;2023-04-24T00:37:00;1.60;;;0.60;;
5199;SDS011;2619;47.868;11.892;2023-04-24T00:39:26;3.10;;;0.60;;
5199;SDS011;2619;47.868;11.892;2023-04-24T00:41:51;1.80;;;0.60;;
5199;SDS011;2619;47.868;11.892;2023-04-24T00:44:18;2.07;;;0.70;;
5199;SDS011;2619;47.868;11.892;2023-04-24T00:46:43;4.00;;;0.67;;
5199;SDS011;2619;47.868;11.892;2023-04-24T00:49:10;3.77;;;0.57;;
5199;SDS011;2619;47.868;11.892;2023-04-24T00:51:37;3.50;;;0.93;;
5199;SDS011;2619;47.868;11.892;2023-04-24T00:54:03;1.50;;;0.40;;
5199;SDS011;2619;47.868;11.892;2023-04-24T00:56:28;1.70;;;0.53;;
5199;SDS011;2619;47.868;11.892;2023-04-24T00:58:54;3.50;;;0.70;;
5199;SDS011;2619;47.868;11.892;2023-04-24T01:01:21;1.77;;;0.60;;
5199;SDS011;2619;47.868;11.892;2023-04-24T01:03:47;2.33;;;1.00;;
5199;SDS011;2619;47.868;11.892;2023-04-24T01:06:15;2.40;;;0.70;;
5199;SDS011;2619;47.868;11.892;2023-04-24T01:08:40;1.80;;;0.70;;
5199;SDS011;2619;47.868;11.892;2023-04-24T01:11:06;1.63;;;0.57;;
5199;SDS011;2619;47.868;11.892;2023-04-24T01:13:33;3.70;;;0.50;;
5199;SDS011;2619;47.868;11.892;2023-04-24T01:15:59;2.17;;;0.60;;
5199;SDS011;2619;47.868;11.892;2023-04-24T01:18:25;6.27;;;0.83;;
5199;SDS011;2619;47.868;11.892;2023-04-24T01:20:53;4.23;;;0.80;;
5199;SDS011;2619;47.868;11.892;2023-04-24T01:23:21;2.10;;;0.90;;
5199;SDS011;2619;47.868;11.892;2023-04-24T01:25:47;1.90;;;0.60;;
5199;SDS011;2619;47.868;11.892;2023-04-24T01:28:14;1.73;;;0.70;;
5199;SDS011;2619;47.868;11.892;2023-04-24T01:30:40;1.60;;;0.50;;
5199;SDS011;2619;47.868;11.892;2023-04-24T01:33:06;1.70;;;0.53;;
5199;SDS011;2619;47.868;11.892;2023-04-24T01:35:32;2.27;;;0.67;;
5199;SDS011;2619;47.868;11.892;2023-04-24T01:37:58;2.63;;;0.80;;
5199;SDS011;2619;47.868;11.892;2023-04-24T01:40:24;2.93;;;0.67;;
5199;SDS011;2619;47.868;11.892;2023-04-24T01:42:50;10.07;;;0.87;;
5199;SDS011;2619;47.868;11.892;2023-04-24T01:45:16;1.90;;;0.60;;
5199;SDS011;2619;47.868;11.892;2023-04-24T01:47:41;5.60;;;0.80;;
5199;SDS011;2619;47.868;11.892;2023-04-24T01:50:07;3.00;;;0.70;;
5199;SDS011;2619;47.868;11.892;2023-04-24T01:52:33;2.83;;;0.80;;
5199;SDS011;2619;47.868;11.892;2023-04-24T01:55:00;7.10;;;0.93;;
5199;SDS011;2619;47.868;11.892;2023-04-24T01:57:27;2.23;;;0.73;;
5199;SDS011;2619;47.868;11.892;2023-04-24T01:59:55;1.70;;;0.60;;
5199;SDS011;2619;47.868;11.892;2023-04-24T02:02:21;2.67;;;0.80;;
5199;SDS011;2619;47.868;11.892;2023-04-24T02:04:48;2.47;;;0.63;;
5199;SDS011;2619;47.868;11.892;2023-04-24T02:07:14;1.60;;;0.70;;
5199;SDS011;2619;47.868;11.892;2023-04-24T02:09:40;2.77;;;1.00;;
5199;SDS011;2619;47.868;11.892;2023-04-24T02:12:05;3.13;;;0.77;;
5199;SDS011;2619;47.868;11.892;2023-04-24T02:14:31;3.33;;;0.60;;
5199;SDS011;2619;47.868;11.892;2023-04-24T02:16:57;3.40;;;0.80;;
5199;SDS011;2619;47.868;11.892;2023-04-24T02:19:22;3.10;;;0.70;;
5199;SDS011;2619;47.868;11.892;2023-04-24T02:21:48;4.03;;;0.80;;
5199;SDS011;2619;47.868;11.892;2023-04-24T02:24:13;1.70;;;0.50;;
5199;SDS011;2619;47.868;11.892;2023-04-24T02:26:39;2.20;;;0.70;;
5199;SDS011;2619;47.868;11.892;2023-04-24T02:29:05;2.47;;;0.73;;
5199;SDS011;2619;47.868;11.892;2023-04-24T02:31:30;2.43;;;0.70;;
5199;SDS011;2619;47.868;11.892;2023-04-24T02:33:56;3.30;;;0.70;;
5199;SDS011;2619;47.868;11.892;2023-04-24T02:36:21;2.03;;;0.70;;
5199;SDS011;2619;47.868;11.892;2023-04-24T02:38:47;2.10;;;0.97;;
5199;SDS011;2619;47.868;11.892;2023-04-24T02:41:12;4.87;;;0.90;;
5199;SDS011;2619;47.868;11.892;2023-04-24T02:43:38;1.90;;;0.90;;
5199;SDS011;2619;47.868;11.892;2023-04-24T02:46:03;2.97;;;0.93;;
5199;SDS011;2619;47.868;11.892;2023-04-24T02:48:29;2.07;;;1.30;;
5199;SDS011;2619;47.868;11.892;2023-04-24T02:50:55;1.90;;;0.67;;
5199;SDS011;2619;47.868;11.892;2023-04-24T02:53:20;2.87;;;1.03;;
5199;SDS011;2619;47.868;11.892;2023-04-24T02:55:46;1.73;;;0.77;;
5199;SDS011;2619;47.868;11.892;2023-04-24T02:58:12;2.27;;;0.90;;
5199;SDS011;2619;47.868;11.892;2023-04-24T03:00:38;5.90;;;1.30;;
5199;SDS011;2619;47.868;11.892;2023-04-24T03:03:04;1.90;;;0.90;;
5199;SDS011;2619;47.868;11.892;2023-04-24T03:05:30;1.93;;;0.80;;
5199;SDS011;2619;47.868;11.892;2023-04-24T03:07:56;3.10;;;0.60;;
5199;SDS011;2619;47.868;11.892;2023-04-24T03:10:22;5.70;;;1.10;;
5199;SDS011;2619;47.868;11.892;2023-04-24T03:12:47;4.80;;;0.67;;
5199;SDS011;2619;47.868;11.892;2023-04-24T03:15:13;1.90;;;0.70;;
5199;SDS011;2619;47.868;11.892;2023-04-24T03:17:39;4.80;;;0.90;;
5199;SDS011;2619;47.868;11.892;2023-04-24T03:20:05;2.17;;;0.87;;
5199;SDS011;2619;47.868;11.892;2023-04-24T03:22:31;5.20;;;0.97;;
5199;SDS011;2619;47.868;11.892;2023-04-24T03:24:57;2.10;;;0.60;;
5199;SDS011;2619;47.868;11.892;2023-04-24T03:27:23;2.60;;;1.77;;
5199;SDS011;2619;47.868;11.892;2023-04-24T03:29:49;2.40;;;0.73;;
5199;SDS011;2619;47.868;11.892;2023-04-24T03:32:18;4.23;;;0.63;;
5199;SDS011;2619;47.868;11.892;2023-04-24T03:34:44;1.80;;;0.73;;
5199;SDS011;2619;47.868;11.892;2023-04-24T03:37:10;2.90;;;0.90;;
5199;SDS011;2619;47.868;11.892;2023-04-24T03:39:35;2.00;;;0.80;;
5199;SDS011;2619;47.868;11.892;2023-04-24T03:42:01;2.00;;;0.70;;
5199;SDS011;2619;47.868;11.892;2023-04-24T03:44:26;1.97;;;0.80;;
5199;SDS011;2619;47.868;11.892;2023-04-24T03:46:52;1.60;;;0.63;;
5199;SDS011;2619;47.868;11.892;2023-04-24T03:49:18;4.60;;;0.83;;
5199;SDS011;2619;47.868;11.892;2023-04-24T03:51:43;3.07;;;1.47;;
5199;SDS011;2619;47.868;11.892;2023-04-24T03:54:09;4.43;;;0.70;;
5199;SDS011;2619;47.868;11.892;2023-04-24T03:56:34;4.10;;;1.10;;
5199;SDS011;2619;47.868;11.892;2023-04-24T03:59:00;1.70;;;0.80;;
5199;SDS011;2619;47.868;11.892;2023-04-24T04:01:26;1.90;;;0.70;;
5199;SDS011;2619;47.868;11.892;2023-04-24T04:03:53;3.70;;;0.90;;
5199;SDS011;2619;47.868;11.892;2023-04-24T04:06:18;3.77;;;0.93;;
5199;SDS011;2619;47.868;11.892;2023-04-24T04:08:46;2.50;;;0.90;;
5199;SDS011;2619;47.868;11.892;2023-04-24T04:11:11;3.23;;;1.17;;
5199;SDS011;2619;47.868;11.892;2023-04-24T04:13:37;2.20;;;0.73;;
5199;SDS011;2619;47.868;11.892;2023-04-24T04:16:03;3.03;;;0.97;;
5199;SDS011;2619;47.868;11.892;2023-04-24T04:18:28;2.53;;;1.00;;
5199;SDS011;2619;47.868;11.892;2023-04-24T04:20:54;2.47;;;0.70;;
5199;SDS011;2619;47.868;11.892;2023-04-24T04:23:20;2.77;;;0.93;;
5199;SDS011;2619;47.868;11.892;2023-04-24T04:25:45;1.90;;;0.90;;
5199;SDS011;2619;47.868;11.892;2023-04-24T04:28:11;2.30;;;0.80;;
5199;SDS011;2619;47.868;11.892;2023-04-24T04:30:37;2.40;;;0.97;;
5199;SDS011;2619;47.868;11.892;2023-04-24T04:33:03;2.50;;;0.77;;
5199;SDS011;2619;47.868;11.892;2023-04-24T04:35:28;2.57;;;0.93;;
5199;SDS011;2619;47.868;11.892;2023-04-24T04:37:54;2.57;;;0.90;;
5199;SDS011;2619;47.868;11.892;2023-04-24T04:40:23;3.50;;;1.00;;
5199;SDS011;2619;47.868;11.892;2023-04-24T04:42:49;1.73;;;0.70;;
5199;SDS011;2619;47.868;11.892;2023-04-24T04:45:17;1.93;;;0.90;;
5199;SDS011;2619;47.868;11.892;2023-04-24T04:47:43;1.90;;;0.60;;
5199;SDS011;2619;47.868;11.892;2023-04-24T04:50:09;4.17;;;0.83;;
5199;SDS011;2619;47.868;11.892;2023-04-24T04:52:35;2.20;;;0.80;;
5199;SDS011;2619;47.868;11.892;2023-04-24T04:55:01;1.90;;;0.60;;
5199;SDS011;2619;47.868;11.892;2023-04-24T04:57:27;3.20;;;0.80;;
5199;SDS011;2619;47.868;11.892;2023-04-24T04:59:52;1.70;;;0.50;;
5199;SDS011;2619;47.868;11.892;2023-04-24T05:02:18;1.90;;;0.60;;
5199;SDS011;2619;47.868;11.892;2023-04-24T05:04:43;2.10;;;0.80;;
5199;SDS011;2619;47.868;11.892;2023-04-24T05:07:10;2.43;;;0.80;;
5199;SDS011;2619;47.868;11.892;2023-04-24T05:09:36;2.43;;;0.70;;
5199;SDS011;2619;47.868;11.892;2023-04-24T05:12:01;2.57;;;0.80;;
5199;SDS011;2619;47.868;11.892;2023-04-24T05:14:27;2.20;;;0.70;;
5199;SDS011;2619;47.868;11.892;2023-04-24T05:16:52;1.70;;;0.50;;
5199;SDS011;2619;47.868;11.892;2023-04-24T05:19:18;2.50;;;0.50;;
5199;SDS011;2619;47.868;11.892;2023-04-24T05:21:44;3.57;;;0.90;;
5199;SDS011;2619;47.868;11.892;2023-04-24T05:24:10;4.27;;;0.60;;
5199;SDS011;2619;47.868;11.892;2023-04-24T05:26:35;1.90;;;0.63;;
5199;SDS011;2619;47.868;11.892;2023-04-24T05:29:01;3.50;;;1.07;;
5199;SDS011;2619;47.868;11.892;2023-04-24T05:31:27;4.20;;;0.73;;
5199;SDS011;2619;47.868;11.892;2023-04-24T05:33:53;1.73;;;0.60;;
5199;SDS011;2619;47.868;11.892;2023-04-24T05:36:18;1.70;;;0.70;;
5199;SDS011;2619;47.868;11.892;2023-04-24T05:38:44;2.27;;;0.63;;
5199;SDS011;2619;47.868;11.892;2023-04-24T05:41:10;2.53;;;0.70;;
5199;SDS011;2619;47.868;11.892;2023-04-24T05:43:35;3.23;;;0.60;;
5199;SDS011;2619;47.868;11.892;2023-04-24T05:46:01;2.00;;;0.60;;
5199;SDS011;2619;47.868;11.892;2023-04-24T05:48:26;2.30;;;0.80;;
5199;SDS011;2619;47.868;11.892;2023-04-24T05:50:52;1.90;;;0.60;;
5199;SDS011;2619;47.868;11.892;2023-04-24T05:53:18;4.90;;;0.87;;
5199;SDS011;2619;47.868;11.892;2023-04-24T05:55:44;3.87;;;1.17;;
5199;SDS011;2619;47.868;11.892;2023-04-24T05:58:10;4.20;;;0.80;;
5199;SDS011;2619;47.868;11.892;2023-04-24T06:00:36;3.17;;;0.90;;
5199;SDS011;2619;47.868;11.892;2023-04-24T06:03:04;1.80;;;0.70;;
5199;SDS011;2619;47.868;11.892;2023-04-24T06:05:30;7.23;;;0.83;;
5199;SDS011;2619;47.868;11.892;2023-04-24T06:07:56;1.90;;;0.67;;
5199;SDS011;2619;47.868;11.892;2023-04-24T06:10:21;2.33;;;0.67;;
5199;SDS011;2619;47.868;11.892;2023-04-24T06:12:47;3.83;;;0.50;;
5199;SDS011;2619;47.868;11.892;2023-04-24T06:15:13;1.80;;;0.63;;
5199;SDS011;2619;47.868;11.892;2023-04-24T06:17:38;6.97;;;1.23;;
5199;SDS011;2619;47.868;11.892;2023-04-24T06:20:04;3.57;;;0.70;;
5199;SDS011;2619;47.868;11.892;2023-04-24T06:22:31;2.87;;;0.87;;
5199;SDS011;2619;47.868;11.892;2023-04-24T06:24:57;4.13;;;0.60;;
5199;SDS011;2619;47.868;11.892;2023-04-24T06:27:22;3.20;;;0.57;;
5199;SDS011;2619;47.868;11.892;2023-04-24T06:29:48;2.10;;;0.50;;
5199;SDS011;2619;47.868;11.892;2023-04-24T06:32:20;9.43;;;0.70;;
5199;SDS011;2619;47.868;11.892;2023-04-24T06:34:47;4.20;;;0.70;;
5199;SDS011;2619;47.868;11.892;2023-04-24T06:37:12;1.83;;;0.70;;
5199;SDS011;2619;47.868;11.892;2023-04-24T06:39:39;1.70;;;0.60;;
5199;SDS011;2619;47.868;11.892;2023-04-24T06:42:04;1.70;;;0.80;;
5199;SDS011;2619;47.868;11.892;2023-04-24T06:44:30;1.80;;;0.60;;
5199;SDS011;2619;47.868;11.892;2023-04-24T06:46:56;1.73;;;0.50;;
5199;SDS011;2619;47.868;11.892;2023-04-24T06:49:21;6.10;;;0.70;;
5199;SDS011;2619;47.868;11.892;2023-04-24T06:51:47;1.83;;;0.50;;
5199;SDS011;2619;47.868;11.892;2023-04-24T06:54:12;2.00;;;0.47;;
5199;SDS011;2619;47.868;11.892;2023-04-24T06:56:38;1.90;;;0.60;;
5199;SDS011;2619;47.868;11.892;2023-04-24T06:59:03;1.50;;;0.40;;
5199;SDS011;2619;47.868;11.892;2023-04-24T07:01:29;1.67;;;0.63;;
5199;SDS011;2619;47.868;11.892;2023-04-24T07:03:55;2.00;;;0.40;;
5199;SDS011;2619;47.868;11.892;2023-04-24T07:06:20;2.60;;;0.43;;
5199;SDS011;2619;47.868;11.892;2023-04-24T07:08:47;1.40;;;0.40;;
5199;SDS011;2619;47.868;11.892;2023-04-24T07:11:13;1.50;;;0.40;;
5199;SDS011;2619;47.868;11.892;2023-04-24T07:13:39;2.27;;;0.50;;
5199;SDS011;2619;47.868;11.892;2023-04-24T07:16:06;1.30;;;0.30;;
5199;SDS011;2619;47.868;11.892;2023-04-24T07:18:33;2.80;;;0.60;;
5199;SDS011;2619;47.868;11.892;2023-04-24T07:20:59;1.90;;;0.40;;
5199;SDS011;2619;47.868;11.892;2023-04-24T07:23:24;1.50;;;0.40;;
5199;SDS011;2619;47.868;11.892;2023-04-24T07:25:50;1.60;;;0.43;;
5199;SDS011;2619;47.868;11.892;2023-04-24T07:28:15;1.40;;;0.40;;
5199;SDS011;2619;47.868;11.892;2023-04-24T07:30:42;2.50;;;0.40;;
5199;SDS011;2619;47.868;11.892;2023-04-24T07:33:08;1.50;;;0.40;;
5199;SDS011;2619;47.868;11.892;2023-04-24T07:35:36;2.80;;;0.40;;
5199;SDS011;2619;47.868;11.892;2023-04-24T07:38:01;1.40;;;0.40;;
5199;SDS011;2619;47.868;11.892;2023-04-24T07:40:27;1.43;;;0.40;;
5199;SDS011;2619;47.868;11.892;2023-04-24T07:42:53;1.40;;;0.30;;
5199;SDS011;2619;47.868;11.892;2023-04-24T07:45:18;1.50;;;0.30;;
5199;SDS011;2619;47.868;11.892;2023-04-24T07:47:44;1.40;;;0.40;;
5199;SDS011;2619;47.868;11.892;2023-04-24T07:50:10;1.40;;;0.40;;
5199;SDS011;2619;47.868;11.892;2023-04-24T07:52:37;2.07;;;0.50;;
5199;SDS011;2619;47.868;11.892;2023-04-24T07:55:03;2.07;;;0.37;;
5199;SDS011;2619;47.868;11.892;2023-04-24T07:57:29;1.30;;;0.30;;
5199;SDS011;2619;47.868;11.892;2023-04-24T07:59:55;1.60;;;0.30;;
5199;SDS011;2619;47.868;11.892;2023-04-24T08:02:21;2.67;;;0.40;;
5199;SDS011;2619;47.868;11.892;2023-04-24T08:04:51;3.40;;;0.40;;
5199;SDS011;2619;47.868;11.892;2023-04-24T08:07:18;1.30;;;0.30;;
5199;SDS011;2619;47.868;11.892;2023-04-24T08:09:44;2.67;;;0.40;;
5199;SDS011;2619;47.868;11.892;2023-04-24T08:12:10;3.20;;;0.53;;
5199;SDS011;2619;47.868;11.892;2023-04-24T08:14:35;1.30;;;0.40;;
5199;SDS011;2619;47.868;11.892;2023-04-24T08:17:01;1.30;;;0.30;;
5199;SDS011;2619;47.868;11.892;2023-04-24T08:19:28;1.33;;;0.40;;
5199;SDS011;2619;47.868;11.892;2023-04-24T08:21:53;2.60;;;0.60;;
5199;SDS011;2619;47.868;11.892;2023-04-24T08:24:19;2.60;;;0.30;;
5199;SDS011;2619;47.868;11.892;2023-04-24T08:26:45;1.50;;;0.30;;
5199;SDS011;2619;47.868;11.892;2023-04-24T08:29:10;1.40;;;0.30;;
5199;SDS011;2619;47.868;11.892;2023-04-24T08:31:36;1.87;;;0.60;;
5199;SDS011;2619;47.868;11.892;2023-04-24T08:34:02;1.80;;;0.40;;
5199;SDS011;2619;47.868;11.892;2023-04-24T08:36:27;1.80;;;0.70;;
5199;SDS011;2619;47.868;11.892;2023-04-24T08:38:53;1.50;;;0.40;;
5199;SDS011;2619;47.868;11.892;2023-04-24T08:41:18;1.50;;;0.40;;
5199;SDS011;2619;47.868;11.892;2023-04-24T08:43:47;2.83;;;0.40;;
5199;SDS011;2619;47.868;11.892;2023-04-24T08:46:14;1.43;;;0.40;;
5199;SDS011;2619;47.868;11.892;2023-04-24T08:48:41;1.87;;;0.50;;
5199;SDS011;2619;47.868;11.892;2023-04-24T08:51:07;1.60;;;0.30;;
5199;SDS011;2619;47.868;11.892;2023-04-24T08:53:34;1.57;;;0.50;;
5199;SDS011;2619;47.868;11.892;2023-04-24T08:56:01;1.50;;;0.40;;
5199;SDS011;2619;47.868;11.892;2023-04-24T08:58:27;1.40;;;0.40;;
5199;SDS011;2619;47.868;11.892;2023-04-24T09:00:54;1.47;;;0.47;;
5199;SDS011;2619;47.868;11.892;2023-04-24T09:03:20;1.80;;;0.60;;
5199;SDS011;2619;47.868;11.892;2023-04-24T09:05:46;1.37;;;0.50;;
5199;SDS011;2619;47.868;11.892;2023-04-24T09:08:14;2.00;;;0.70;;
5199;SDS011;2619;47.868;11.892;2023-04-24T09:10:42;1.70;;;0.67;;
5199;SDS011;2619;47.868;11.892;2023-04-24T09:13:08;1.53;;;0.60;;
5199;SDS011;2619;47.868;11.892;2023-04-24T09:15:35;1.57;;;0.57;;
5199;SDS011;2619;47.868;11.892;2023-04-24T09:18:05;1.80;;;0.80;;
5199;SDS011;2619;47.868;11.892;2023-04-24T09:20:30;4.27;;;0.90;;
5199;SDS011;2619;47.868;11.892;2023-04-24T09:22:57;1.87;;;0.93;;
5199;SDS011;2619;47.868;11.892;2023-04-24T09:25:25;2.60;;;0.93;;
5199;SDS011;2619;47.868;11.892;2023-04-24T09:28:01;1.70;;;0.83;;
5199;SDS011;2619;47.868;11.892;2023-04-24T09:30:28;2.70;;;0.83;;
5199;SDS011;2619;47.868;11.892;2023-04-24T09:33:09;2.33;;;0.77;;
5199;SDS011;2619;47.868;11.892;2023-04-24T09:35:36;1.90;;;0.80;;
5199;SDS011;2619;47.868;11.892;2023-04-24T09:38:01;1.80;;;0.90;;
5199;SDS011;2619;47.868;11.892;2023-04-24T09:40:27;3.30;;;0.90;;
5199;SDS011;2619;47.868;11.892;2023-04-24T09:42:54;2.30;;;0.93;;
5199;SDS011;2619;47.868;11.892;2023-04-24T09:45:21;3.17;;;2.13;;
5199;SDS011;2619;47.868;11.892;2023-04-24T09:47:52;2.03;;;0.90;;
5199;SDS011;2619;47.868;11.892;2023-04-24T09:50:20;2.33;;;0.80;;
5199;SDS011;2619;47.868;11.892;2023-04-24T09:52:56;2.73;;;1.27;;
5199;SDS011;2619;47.868;11.892;2023-04-24T09:55:23;4.10;;;1.00;;
5199;SDS011;2619;47.868;11.892;2023-04-24T09:58:00;1.90;;;0.77;;
5199;SDS011;2619;47.868;11.892;2023-04-24T10:00:30;2.00;;;0.83;;
5199;SDS011;2619;47.868;11.892;2023-04-24T10:03:00;2.10;;;0.93;;
5199;SDS011;2619;47.868;11.892;2023-04-24T10:05:28;2.80;;;1.10;;
5199;SDS011;2619;47.868;11.892;2023-04-24T10:08:05;2.27;;;1.00;;
5199;SDS011;2619;47.868;11.892;2023-04-24T10:10:33;1.90;;;0.90;;
5199;SDS011;2619;47.868;11.892;2023-04-24T10:13:00;1.60;;;0.50;;
5199;SDS011;2619;47.868;11.892;2023-04-24T10:15:26;3.27;;;1.10;;
5199;SDS011;2619;47.868;11.892;2023-04-24T10:17:52;4.50;;;0.70;;
5199;SDS011;2619;47.868;11.892;2023-04-24T10:20:22;3.03;;;0.83;;
5199;SDS011;2619;47.868;11.892;2023-04-24T10:22:49;1.93;;;0.83;;
5199;SDS011;2619;47.868;11.892;2023-04-24T10:25:18;2.23;;;0.90;;
5199;SDS011;2619;47.868;11.892;2023-04-24T10:27:48;1.60;;;0.83;;
5199;SDS011;2619;47.868;11.892;2023-04-24T10:30:15;3.93;;;1.07;;
5199;SDS011;2619;47.868;11.892;2023-04-24T10:32:42;1.97;;;0.97;;
5199;SDS011;2619;47.868;11.892;2023-04-24T10:35:08;3.63;;;0.80;;
5199;SDS011;2619;47.868;11.892;2023-04-24T10:37:39;1.60;;;0.67;;
5199;SDS011;2619;47.868;11.892;2023-04-24T10:40:18;2.00;;;1.00;;
5199;SDS011;2619;47.868;11.892;2023-04-24T10:42:47;1.83;;;0.97;;
5199;SDS011;2619;47.868;11.892;2023-04-24T10:45:17;2.63;;;1.10;;
5199;SDS011;2619;47.868;11.892;2023-04-24T10:47:57;1.97;;;1.00;;
5199;SDS011;2619;47.868;11.892;2023-04-24T10:50:26;2.63;;;1.03;;
5199;SDS011;2619;47.868;11.892;2023-04-24T10:52:53;3.20;;;1.17;;
5199;SDS011;2619;47.868;11.892;2023-04-24T10:58:08;2.47;;;0.70;;
5199;SDS011;2619;47.868;11.892;2023-04-24T11:00:39;1.70;;;0.80;;
5199;SDS011;2619;47.868;11.892;2023-04-24T11:03:06;3.23;;;1.30;;
5199;SDS011;2619;47.868;11.892;2023-04-24T11:11:17;2.00;;;1.10;;
5199;SDS011;2619;47.868;11.892;2023-04-24T11:26:54;4.20;;;1.23;;
5199;SDS011;2619;47.868;11.892;2023-04-24T11:29:21;3.70;;;2.80;;
5199;SDS011;2619;47.868;11.892;2023-04-24T11:31:48;2.00;;;1.10;;
5199;SDS011;2619;47.868;11.892;2023-04-24T11:34:16;2.40;;;0.97;;
5199;SDS011;2619;47.868;11.892;2023-04-24T11:36:43;3.57;;;1.23;;
5199;SDS011;2619;47.868;11.892;2023-04-24T11:39:09;2.70;;;1.00;;
5199;SDS011;2619;47.868;11.892;2023-04-24T11:41:36;2.87;;;0.87;;
5199;SDS011;2619;47.868;11.892;2023-04-24T11:44:02;1.77;;;0.90;;
5199;SDS011;2619;47.868;11.892;2023-04-24T11:46:30;2.10;;;0.93;;
5199;SDS011;2619;47.868;11.892;2023-04-24T11:48:57;3.00;;;1.03;;
5199;SDS011;2619;47.868;11.892;2023-04-24T11:51:23;2.87;;;0.90;;
5199;SDS011;2619;47.868;11.892;2023-04-24T11:53:50;1.80;;;0.90;;
5199;SDS011;2619;47.868;11.892;2023-04-24T11:56:19;1.73;;;0.90;;
5199;SDS011;2619;47.868;11.892;2023-04-24T11:58:47;3.97;;;1.00;;
5199;SDS011;2619;47.868;11.892;2023-04-24T12:01:13;2.57;;;0.93;;
5199;SDS011;2619;47.868;11.892;2023-04-24T12:03:39;2.60;;;1.07;;
5199;SDS011;2619;47.868;11.892;2023-04-24T12:06:08;2.90;;;0.80;;
5199;SDS011;2619;47.868;11.892;2023-04-24T12:08:35;1.80;;;0.70;;
5199;SDS011;2619;47.868;11.892;2023-04-24T12:11:01;2.87;;;1.10;;
5199;SDS011;2619;47.868;11.892;2023-04-24T12:13:28;4.57;;;1.23;;
5199;SDS011;2619;47.868;11.892;2023-04-24T12:15:56;4.77;;;1.40;;
5199;SDS011;2619;47.868;11.892;2023-04-24T12:18:22;4.37;;;1.43;;
5199;SDS011;2619;47.868;11.892;2023-04-24T12:20:48;4.23;;;1.13;;
5199;SDS011;2619;47.868;11.892;2023-04-24T12:23:14;2.30;;;1.10;;
5199;SDS011;2619;47.868;11.892;2023-04-24T12:25:40;2.90;;;1.07;;
5199;SDS011;2619;47.868;11.892;2023-04-24T12:30:39;3.47;;;1.00;;
5199;SDS011;2619;47.868;11.892;2023-04-24T12:33:16;3.20;;;1.23;;
5199;SDS011;2619;47.868;11.892;2023-04-24T12:35:48;2.00;;;0.90;;
5199;SDS011;2619;47.868;11.892;2023-04-24T12:38:16;2.43;;;1.07;;
5199;SDS011;2619;47.868;11.892;2023-04-24T12:40:47;3.30;;;1.17;;
5199;SDS011;2619;47.868;11.892;2023-04-24T12:43:25;1.93;;;0.97;;
5199;SDS011;2619;47.868;11.892;2023-04-24T12:45:51;1.87;;;0.80;;
5199;SDS011;2619;47.868;11.892;2023-04-24T12:48:17;2.33;;;1.10;;
5199;SDS011;2619;47.868;11.892;2023-04-24T12:50:43;3.40;;;1.10;;
5199;SDS011;2619;47.868;11.892;2023-04-24T12:53:09;3.00;;;0.80;;
5199;SDS011;2619;47.868;11.892;2023-04-24T12:55:35;2.03;;;1.17;;
5199;SDS011;2619;47.868;11.892;2023-04-24T12:58:02;2.00;;;1.00;;
5199;SDS011;2619;47.868;11.892;2023-04-24T13:00:28;3.17;;;0.90;;
5199;SDS011;2619;47.868;11.892;2023-04-24T13:02:53;1.90;;;1.00;;
5199;SDS011;2619;47.868;11.892;2023-04-24T13:05:19;1.93;;;0.87;;
5199;SDS011;2619;47.868;11.892;2023-04-24T13:07:45;2.77;;;0.90;;
5199;SDS011;2619;47.868;11.892;2023-04-24T13:10:10;2.20;;;1.20;;
5199;SDS011;2619;47.868;11.892;2023-04-24T13:12:38;2.57;;;0.90;;
5199;SDS011;2619;47.868;11.892;2023-04-24T13:15:04;1.90;;;1.03;;
5199;SDS011;2619;47.868;11.892;2023-04-24T13:17:30;2.30;;;1.17;;
5199;SDS011;2619;47.868;11.892;2023-04-24T13:19:56;2.47;;;1.00;;
5199;SDS011;2619;47.868;11.892;2023-04-24T13:22:21;2.57;;;0.93;;
5199;SDS011;2619;47.868;11.892;2023-04-24T13:24:47;2.13;;;1.03;;
5199;SDS011;2619;47.868;11.892;2023-04-24T13:27:14;2.10;;;0.90;;
5199;SDS011;2619;47.868;11.892;2023-04-24T13:29:40;2.23;;;0.83;;
5199;SDS011;2619;47.868;11.892;2023-04-24T13:32:05;2.40;;;1.13;;
5199;SDS011;2619;47.868;11.892;2023-04-24T13:34:31;2.77;;;1.43;;
5199;SDS011;2619;47.868;11.892;2023-04-24T13:36:57;3.63;;;1.60;;
5199;SDS011;2619;47.868;11.892;2023-04-24T13:39:23;2.20;;;1.20;;
5199;SDS011;2619;47.868;11.892;2023-04-24T13:41:50;3.20;;;1.43;;
5199;SDS011;2619;47.868;11.892;2023-04-24T13:44:16;1.97;;;0.93;;
5199;SDS011;2619;47.868;11.892;2023-04-24T13:46:43;2.57;;;1.10;;
5199;SDS011;2619;47.868;11.892;2023-04-24T13:49:11;2.67;;;1.30;;
5199;SDS011;2619;47.868;11.892;2023-04-24T13:51:38;2.50;;;1.30;;
5199;SDS011;2619;47.868;11.892;2023-04-24T13:54:05;2.57;;;1.50;;
5199;SDS011;2619;47.868;11.892;2023-04-24T13:56:30;3.00;;;1.40;;
5199;SDS011;2619;47.868;11.892;2023-04-24T13:58:56;3.40;;;1.40;;
5199;SDS011;2619;47.868;11.892;2023-04-24T14:01:22;2.50;;;1.17;;
5199;SDS011;2619;47.868;11.892;2023-04-24T14:03:51;5.30;;;1.47;;
5199;SDS011;2619;47.868;11.892;2023-04-24T14:06:20;5.03;;;1.93;;
5199;SDS011;2619;47.868;11.892;2023-04-24T14:08:47;3.40;;;1.27;;
5199;SDS011;2619;47.868;11.892;2023-04-24T14:11:13;2.43;;;1.17;;
5199;SDS011;2619;47.868;11.892;2023-04-24T14:13:40;4.17;;;1.20;;
5199;SDS011;2619;47.868;11.892;2023-04-24T14:16:06;2.10;;;1.10;;
5199;SDS011;2619;47.868;11.892;2023-04-24T14:18:32;3.43;;;1.60;;
5199;SDS011;2619;47.868;11.892;2023-04-24T14:20:57;2.03;;;1.27;;
5199;SDS011;2619;47.868;11.892;2023-04-24T14:23:24;2.60;;;1.60;;
5199;SDS011;2619;47.868;11.892;2023-04-24T14:25:49;2.23;;;1.20;;
5199;SDS011;2619;47.868;11.892;2023-04-24T14:28:17;2.50;;;1.30;;
5199;SDS011;2619;47.868;11.892;2023-04-24T14:30:44;2.30;;;1.10;;
5199;SDS011;2619;47.868;11.892;2023-04-24T14:33:09;2.47;;;1.20;;
5199;SDS011;2619;47.868;11.892;2023-04-24T14:35:35;1.93;;;1.17;;
5199;SDS011;2619;47.868;11.892;2023-04-24T14:38:01;2.20;;;1.33;;
5199;SDS011;2619;47.868;11.892;2023-04-24T14:40:27;3.27;;;1.50;;
5199;SDS011;2619;47.868;11.892;2023-04-24T14:42:53;3.47;;;1.57;;
5199;SDS011;2619;47.868;11.892;2023-04-24T14:45:18;3.23;;;1.53;;
5199;SDS011;2619;47.868;11.892;2023-04-24T14:47:44;4.60;;;1.63;;
5199;SDS011;2619;47.868;11.892;2023-04-24T14:50:10;3.20;;;1.70;;
5199;SDS011;2619;47.868;11.892;2023-04-24T14:52:37;4.80;;;2.60;;
5199;SDS011;2619;47.868;11.892;2023-04-24T14:55:03;2.63;;;1.67;;
5199;SDS011;2619;47.868;11.892;2023-04-24T14:57:29;3.30;;;1.40;;
5199;SDS011;2619;47.868;11.892;2023-04-24T14:59:55;4.93;;;1.30;;
5199;SDS011;2619;47.868;11.892;2023-04-24T15:02:20;3.03;;;1.70;;
5199;SDS011;2619;47.868;11.892;2023-04-24T15:04:46;3.13;;;1.57;;
5199;SDS011;2619;47.868;11.892;2023-04-24T15:07:12;4.50;;;1.53;;
5199;SDS011;2619;47.868;11.892;2023-04-24T15:09:37;3.40;;;1.37;;
5199;SDS011;2619;47.868;11.892;2023-04-24T15:12:03;2.33;;;1.30;;
5199;SDS011;2619;47.868;11.892;2023-04-24T15:14:29;2.43;;;1.20;;
5199;SDS011;2619;47.868;11.892;2023-04-24T15:16:55;3.13;;;1.20;;
5199;SDS011;2619;47.868;11.892;2023-04-24T15:19:20;4.03;;;1.60;;